createdAt,value
2019-02-22T00:00:00.399Z,9.35
2019-02-22T00:01:00.363Z,9.31
2019-02-22T00:02:00.356Z,9.37
2019-02-22T00:03:00.346Z,9.32
2019-02-22T00:04:00.335Z,9.31
2019-02-22T00:05:00.331Z,9.32
2019-02-22T00:06:00.333Z,9.27
2019-02-22T00:07:00.301Z,9.34
2019-02-22T00:08:00.282Z,9.30
2019-02-22T00:09:00.271Z,9.32
2019-02-22T00:10:00.385Z,9.30
2019-02-22T00:11:00.265Z,9.30
2019-02-22T00:12:00.266Z,9.30
2019-02-22T00:13:00.237Z,9.27
2019-02-22T00:14:00.227Z,9.27
2019-02-22T00:15:00.211Z,9.31
2019-02-22T00:16:00.219Z,9.34
2019-02-22T00:17:00.213Z,9.27
2019-02-22T00:18:00.173Z,9.31
2019-02-22T00:19:00.165Z,9.34
2019-02-22T00:20:00.383Z,9.32
2019-02-22T00:21:00.150Z,9.32
2019-02-22T00:22:00.133Z,9.27
2019-02-22T00:23:00.142Z,9.27
2019-02-22T00:24:00.116Z,9.31
2019-02-22T00:25:00.231Z,9.23
2019-02-22T00:26:00.100Z,9.31
2019-02-22T00:27:00.107Z,9.32
2019-02-22T00:28:00.069Z,9.26
2019-02-22T00:29:00.077Z,9.27
2019-02-22T00:30:00.047Z,9.24
2019-02-22T00:31:00.037Z,9.30
2019-02-22T00:32:00.059Z,9.31
2019-02-22T00:33:00.027Z,9.24
2019-02-22T00:34:00.053Z,9.32
2019-02-22T00:35:00.059Z,9.31
2019-02-22T00:36:00.073Z,9.30
2019-02-22T00:36:59.994Z,9.30
2019-02-22T00:37:59.969Z,9.31
2019-02-22T00:38:59.986Z,9.31
2019-02-22T00:39:59.941Z,9.30
2019-02-22T00:40:59.939Z,9.26
2019-02-22T00:41:59.919Z,9.32
2019-02-22T00:42:59.907Z,9.26
2019-02-22T00:43:59.920Z,9.26
2019-02-22T00:44:59.896Z,9.23
2019-02-22T00:45:59.883Z,9.26
2019-02-22T00:46:59.877Z,9.27
2019-02-22T00:47:59.854Z,9.24
2019-02-22T00:48:59.869Z,9.27
2019-02-22T00:49:59.845Z,9.26
2019-02-22T00:50:59.826Z,9.22
2019-02-22T00:51:59.823Z,9.08
2019-02-22T00:52:59.811Z,9.16
2019-02-22T00:53:59.790Z,9.10
2019-02-22T00:54:59.799Z,9.27
2019-02-22T00:55:59.780Z,9.10
2019-02-22T00:56:59.769Z,9.12
2019-02-22T00:57:59.764Z,9.17
2019-02-22T00:58:59.768Z,9.12
2019-02-22T00:59:59.729Z,9.16
2019-02-22T01:00:59.715Z,9.08
2019-02-22T01:01:59.703Z,9.06
2019-02-22T01:02:59.695Z,9.15
2019-02-22T01:03:59.720Z,9.13
2019-02-22T01:04:59.684Z,9.15
2019-02-22T01:05:59.708Z,9.20
2019-02-22T01:06:59.662Z,9.12
2019-02-22T01:07:59.647Z,9.17
2019-02-22T01:08:59.633Z,9.13
2019-02-22T01:09:59.644Z,9.13
2019-02-22T01:10:59.650Z,9.13
2019-02-22T01:11:59.604Z,9.13
2019-02-22T01:12:59.594Z,9.13
2019-02-22T01:13:59.577Z,9.13
2019-02-22T01:14:59.573Z,9.17
2019-02-22T01:15:59.572Z,9.13
2019-02-22T01:16:59.582Z,9.12
2019-02-22T01:17:59.544Z,9.17
2019-02-22T01:18:59.530Z,9.08
2019-02-22T01:19:59.519Z,9.08
2019-02-22T01:20:59.536Z,9.15
2019-02-22T01:21:59.492Z,9.04
2019-02-22T01:22:59.491Z,9.13
2019-02-22T01:23:59.477Z,9.12
2019-02-22T01:24:59.469Z,9.04
2019-02-22T01:25:59.453Z,9.08
2019-02-22T01:26:59.459Z,9.04
2019-02-22T01:27:59.435Z,9.01
2019-02-22T01:28:59.425Z,8.89
2019-02-22T01:29:59.420Z,8.96
2019-02-22T01:30:59.405Z,9.00
2019-02-22T01:31:59.402Z,8.97
2019-02-22T01:32:59.389Z,8.94
2019-02-22T01:33:59.420Z,8.94
2019-02-22T01:34:59.353Z,8.93
2019-02-22T01:35:59.364Z,8.91
2019-02-22T01:36:59.359Z,8.96
2019-02-22T01:37:59.390Z,8.93
2019-02-22T01:38:59.324Z,8.91
2019-02-22T01:39:59.301Z,8.91
2019-02-22T01:40:59.292Z,8.86
2019-02-22T01:41:59.312Z,8.80
2019-02-22T01:42:59.274Z,8.89
2019-02-22T01:43:59.259Z,8.89
2019-02-22T01:44:59.303Z,8.86
2019-02-22T01:45:59.245Z,8.89
2019-02-22T01:46:59.230Z,8.83
2019-02-22T01:47:59.288Z,8.76
2019-02-22T01:48:59.222Z,8.75
2019-02-22T01:49:59.205Z,8.89
2019-02-22T01:50:59.206Z,8.88
2019-02-22T01:51:59.174Z,8.80
2019-02-22T01:52:59.202Z,8.86
2019-02-22T01:53:59.152Z,8.79
2019-02-22T01:54:59.144Z,8.76
2019-02-22T01:55:59.140Z,8.82
2019-02-22T01:56:59.134Z,8.76
2019-02-22T01:57:59.107Z,8.76
2019-02-22T01:58:59.116Z,8.85
2019-02-22T01:59:59.093Z,8.82
2019-02-22T02:00:59.085Z,8.78
2019-02-22T02:01:59.080Z,8.89
2019-02-22T02:02:59.067Z,8.88
2019-02-22T02:03:59.067Z,8.85
2019-02-22T02:04:59.037Z,8.78
2019-02-22T02:05:59.023Z,8.88
2019-02-22T02:06:59.015Z,8.79
2019-02-22T02:07:59.011Z,8.78
2019-02-22T02:08:59.032Z,8.79
2019-02-22T02:09:58.990Z,8.76
2019-02-22T02:10:58.977Z,8.83
2019-02-22T02:12:01.705Z,8.79
2019-02-22T02:12:58.963Z,8.80
2019-02-22T02:13:58.951Z,8.80
2019-02-22T02:14:58.959Z,8.76
2019-02-22T02:15:58.917Z,8.78
2019-02-22T02:16:58.915Z,8.86
2019-02-22T02:17:58.896Z,8.79
2019-02-22T02:18:58.892Z,8.79
2019-02-22T02:19:59.472Z,8.86
2019-02-22T02:20:58.871Z,8.75
2019-02-22T02:21:58.867Z,8.79
2019-02-22T02:22:58.849Z,8.85
2019-02-22T02:23:58.840Z,8.89
2019-02-22T02:24:58.842Z,8.75
2019-02-22T02:25:58.815Z,8.79
2019-02-22T02:26:58.808Z,8.68
2019-02-22T02:27:58.802Z,8.85
2019-02-22T02:28:58.794Z,8.82
2019-02-22T02:29:58.800Z,8.78
2019-02-22T02:30:58.773Z,8.83
2019-02-22T02:31:58.764Z,8.76
2019-02-22T02:32:58.745Z,8.70
2019-02-22T02:33:58.754Z,8.76
2019-02-22T02:34:58.728Z,8.75
2019-02-22T02:35:58.716Z,8.78
2019-02-22T02:36:58.721Z,8.73
2019-02-22T02:37:58.693Z,8.86
2019-02-22T02:38:58.676Z,8.75
2019-02-22T02:39:59.008Z,8.80
2019-02-22T02:41:07.080Z,8.80
2019-02-22T02:41:59.677Z,8.80
2019-02-22T02:42:58.650Z,8.80
2019-02-22T02:43:58.631Z,8.73
2019-02-22T02:44:58.631Z,8.85
2019-02-22T02:45:58.617Z,8.78
2019-02-22T02:46:58.627Z,8.82
2019-02-22T02:47:58.597Z,8.86
2019-02-22T02:48:58.573Z,8.70
2019-02-22T02:49:58.575Z,8.70
2019-02-22T02:50:58.548Z,8.82
2019-02-22T02:51:58.544Z,8.70
2019-02-22T02:52:58.549Z,8.67
2019-02-22T02:53:58.537Z,8.86
2019-02-22T02:54:58.513Z,8.70
2019-02-22T02:55:58.499Z,8.80
2019-02-22T02:56:58.482Z,8.86
2019-02-22T02:57:58.492Z,8.79
2019-02-22T02:58:58.463Z,8.78
2019-02-22T02:59:58.471Z,8.83
2019-02-22T03:00:58.444Z,8.73
2019-02-22T03:01:58.434Z,8.85
2019-02-22T03:02:58.434Z,8.79
2019-02-22T03:03:58.415Z,8.71
2019-02-22T03:04:58.408Z,8.76
2019-02-22T03:05:58.393Z,8.76
2019-02-22T03:06:58.457Z,8.86
2019-02-22T03:07:58.386Z,8.79
2019-02-22T03:08:58.354Z,8.68
2019-02-22T03:09:58.350Z,8.76
2019-02-22T03:10:58.351Z,8.71
2019-02-22T03:11:58.337Z,8.76
2019-02-22T03:12:58.360Z,8.78
2019-02-22T03:13:58.314Z,8.67
2019-02-22T03:14:58.335Z,8.67
2019-02-22T03:15:58.293Z,8.71
2019-02-22T03:16:58.271Z,8.64
2019-02-22T03:17:58.275Z,8.67
2019-02-22T03:18:58.286Z,8.71
2019-02-22T03:19:58.254Z,8.71
2019-02-22T03:20:58.229Z,8.63
2019-02-22T03:21:58.221Z,8.63
2019-02-22T03:22:58.208Z,8.60
2019-02-22T03:23:58.206Z,8.67
2019-02-22T03:24:58.266Z,8.57
2019-02-22T03:25:58.196Z,8.64
2019-02-22T03:26:58.175Z,8.64
2019-02-22T03:27:58.156Z,8.61
2019-02-22T03:28:58.165Z,8.58
2019-02-22T03:29:58.133Z,8.58
2019-02-22T03:30:58.126Z,8.61
2019-02-22T03:31:58.117Z,8.60
2019-02-22T03:32:58.129Z,8.60
2019-02-22T03:33:58.098Z,8.55
2019-02-22T03:34:58.106Z,8.64
2019-02-22T03:35:58.076Z,8.60
2019-02-22T03:36:58.064Z,8.55
2019-02-22T03:37:58.052Z,8.60
2019-02-22T03:38:58.051Z,8.60
2019-02-22T03:39:58.028Z,8.50
2019-02-22T03:40:58.035Z,8.45
2019-02-22T03:41:58.014Z,8.45
2019-02-22T03:42:57.996Z,8.47
2019-02-22T03:43:57.992Z,8.49
2019-02-22T03:44:57.988Z,8.47
2019-02-22T03:45:57.990Z,8.47
2019-02-22T03:46:57.958Z,8.52
2019-02-22T03:47:57.962Z,8.47
2019-02-22T03:48:57.932Z,8.52
2019-02-22T03:49:57.932Z,8.55
2019-02-22T03:50:57.949Z,8.45
2019-02-22T03:51:57.924Z,8.49
2019-02-22T03:52:57.895Z,8.37
2019-02-22T03:53:57.876Z,8.39
2019-02-22T03:54:57.871Z,8.37
2019-02-22T03:55:57.868Z,8.34
2019-02-22T03:56:57.872Z,8.31
2019-02-22T03:57:57.841Z,8.22
2019-02-22T03:58:57.833Z,8.21
2019-02-22T03:59:57.814Z,8.21
2019-02-22T04:00:57.801Z,8.22
2019-02-22T04:01:57.822Z,8.14
2019-02-22T04:02:57.786Z,8.07
2019-02-22T04:03:57.778Z,8.12
2019-02-22T04:04:57.769Z,8.14
2019-02-22T04:05:57.758Z,8.13
2019-02-22T04:06:57.742Z,8.12
2019-02-22T04:07:57.757Z,8.09
2019-02-22T04:08:57.730Z,8.13
2019-02-22T04:09:57.714Z,8.13
2019-02-22T04:10:57.706Z,8.10
2019-02-22T04:11:57.710Z,8.12
2019-02-22T04:12:57.682Z,8.07
2019-02-22T04:13:57.690Z,7.96
2019-02-22T04:14:57.662Z,7.89
2019-02-22T04:15:57.652Z,8.06
2019-02-22T04:16:57.645Z,7.96
2019-02-22T04:17:57.631Z,8.00
2019-02-22T04:18:57.659Z,8.10
2019-02-22T04:19:57.601Z,8.06
2019-02-22T04:20:57.591Z,7.95
2019-02-22T04:21:57.592Z,7.99
2019-02-22T04:22:57.591Z,7.91
2019-02-22T04:23:57.558Z,7.92
2019-02-22T04:24:57.580Z,7.94
2019-02-22T04:25:57.542Z,7.92
2019-02-22T04:26:57.529Z,7.94
2019-02-22T04:27:57.527Z,7.89
2019-02-22T04:28:57.518Z,7.94
2019-02-22T04:29:57.503Z,7.91
2019-02-22T04:30:57.528Z,7.94
2019-02-22T04:31:57.474Z,7.81
2019-02-22T04:32:57.464Z,7.74
2019-02-22T04:33:57.464Z,7.77
2019-02-22T04:34:57.443Z,7.70
2019-02-22T04:35:57.463Z,7.58
2019-02-22T04:36:57.439Z,7.48
2019-02-22T04:37:57.413Z,7.45
2019-02-22T04:38:57.399Z,7.33
2019-02-22T04:39:57.401Z,7.27
2019-02-22T04:40:57.411Z,7.34
2019-02-22T04:41:58.388Z,7.19
2019-02-22T04:42:57.368Z,7.29
2019-02-22T04:43:57.350Z,7.32
2019-02-22T04:44:57.339Z,7.24
2019-02-22T04:45:57.342Z,7.36
2019-02-22T04:46:57.365Z,7.27
2019-02-22T04:47:57.325Z,7.21
2019-02-22T04:48:57.323Z,7.18
2019-02-22T04:49:57.292Z,7.21
2019-02-22T04:50:57.309Z,7.21
2019-02-22T04:51:57.275Z,7.11
2019-02-22T04:52:57.253Z,7.07
2019-02-22T04:53:57.257Z,6.97
2019-02-22T04:54:57.236Z,6.99
2019-02-22T04:55:57.236Z,6.90
2019-02-22T04:56:57.240Z,6.81
2019-02-22T04:57:57.202Z,6.58
2019-02-22T04:58:57.189Z,6.53
2019-02-22T04:59:57.196Z,6.45
2019-02-22T05:00:57.202Z,6.33
2019-02-22T05:01:57.165Z,6.21
2019-02-22T05:02:57.151Z,6.24
2019-02-22T05:03:57.151Z,6.25
2019-02-22T05:04:57.130Z,6.08
2019-02-22T05:05:57.146Z,6.02
2019-02-22T05:06:57.103Z,6.03
2019-02-22T05:07:57.099Z,5.98
2019-02-22T05:08:57.089Z,6.16
2019-02-22T05:09:57.075Z,6.10
2019-02-22T05:10:57.088Z,6.03
2019-02-22T05:11:57.055Z,6.06
2019-02-22T05:12:57.046Z,6.03
2019-02-22T05:13:57.037Z,5.98
2019-02-22T05:14:57.024Z,5.98
2019-02-22T05:15:57.009Z,5.96
2019-02-22T05:16:57.025Z,6.03
2019-02-22T05:17:57.027Z,6.01
2019-02-22T05:18:56.975Z,5.99
2019-02-22T05:19:56.970Z,5.90
2019-02-22T05:20:56.965Z,5.84
2019-02-22T05:21:56.952Z,5.84
2019-02-22T05:23:03.718Z,5.85
2019-02-22T05:23:57.927Z,5.81
2019-02-22T05:24:56.914Z,5.80
2019-02-22T05:25:56.911Z,5.80
2019-02-22T05:26:56.899Z,5.78
2019-02-22T05:27:56.922Z,5.81
2019-02-22T05:28:56.872Z,5.77
2019-02-22T05:29:56.862Z,5.70
2019-02-22T05:30:56.880Z,5.70
2019-02-22T05:31:56.846Z,5.67
2019-02-22T05:32:56.836Z,5.69
2019-02-22T05:33:56.852Z,5.59
2019-02-22T05:34:56.818Z,5.55
2019-02-22T05:35:56.797Z,5.58
2019-02-22T05:36:56.789Z,5.59
2019-02-22T05:37:56.795Z,5.62
2019-02-22T05:38:56.798Z,5.60
2019-02-22T05:39:56.786Z,5.47
2019-02-22T05:40:56.755Z,5.41
2019-02-22T05:41:56.737Z,5.40
2019-02-22T05:42:56.731Z,5.23
2019-02-22T05:43:56.779Z,5.33
2019-02-22T05:44:57.096Z,5.30
2019-02-22T05:45:56.703Z,5.30
2019-02-22T05:47:00.486Z,5.27
2019-02-22T05:47:56.696Z,5.30
2019-02-22T05:48:56.683Z,5.27
2019-02-22T05:49:56.656Z,5.33
2019-02-22T05:50:56.699Z,5.27
2019-02-22T05:51:56.645Z,5.27
2019-02-22T05:52:56.632Z,5.30
2019-02-22T05:53:56.633Z,5.27
2019-02-22T05:54:56.611Z,5.32
2019-02-22T05:55:56.641Z,5.40
2019-02-22T05:56:56.587Z,5.35
2019-02-22T05:57:56.582Z,5.37
2019-02-22T05:58:56.572Z,5.35
2019-02-22T05:59:56.556Z,5.38
2019-02-22T06:00:56.542Z,5.44
2019-02-22T06:01:56.552Z,5.40
2019-02-22T06:02:56.531Z,5.33
2019-02-22T06:03:56.548Z,5.30
2019-02-22T06:04:56.513Z,5.32
2019-02-22T06:05:56.503Z,5.38
2019-02-22T06:06:56.511Z,5.41
2019-02-22T06:07:56.470Z,5.35
2019-02-22T06:08:56.464Z,5.40
2019-02-22T06:09:56.447Z,5.38
2019-02-22T06:10:56.436Z,5.37
2019-02-22T06:11:56.442Z,5.37
2019-02-22T06:12:56.451Z,5.24
2019-02-22T06:13:56.412Z,5.23
2019-02-22T06:14:56.481Z,5.35
2019-02-22T06:15:56.397Z,5.26
2019-02-22T06:16:56.380Z,5.29
2019-02-22T06:17:56.370Z,5.27
2019-02-22T06:18:56.391Z,5.33
2019-02-22T06:19:56.342Z,5.32
2019-02-22T06:20:56.332Z,5.30
2019-02-22T06:21:56.342Z,5.35
2019-02-22T06:22:56.347Z,5.32
2019-02-22T06:23:56.309Z,5.29
2019-02-22T06:24:56.298Z,5.33
2019-02-22T06:25:56.293Z,5.23
2019-02-22T06:26:56.315Z,5.27
2019-02-22T06:27:56.272Z,5.38
2019-02-22T06:28:56.286Z,5.35
2019-02-22T06:29:56.246Z,5.26
2019-02-22T06:30:56.234Z,5.27
2019-02-22T06:31:56.223Z,5.12
2019-02-22T06:32:56.207Z,5.22
2019-02-22T06:33:56.198Z,5.23
2019-02-22T06:34:56.202Z,5.20
2019-02-22T06:35:56.183Z,5.22
2019-02-22T06:37:01.632Z,5.14
2019-02-22T06:37:57.159Z,5.06
2019-02-22T06:38:56.154Z,5.05
2019-02-22T06:39:56.170Z,5.04
2019-02-22T06:40:56.126Z,5.04
2019-02-22T06:41:56.113Z,5.01
2019-02-22T06:42:56.104Z,4.99
2019-02-22T06:43:56.114Z,4.97
2019-02-22T06:44:56.088Z,4.88
2019-02-22T06:45:56.086Z,4.83
2019-02-22T06:46:56.058Z,4.87
2019-02-22T06:47:56.060Z,4.80
2019-02-22T06:48:56.047Z,4.77
2019-02-22T06:49:56.040Z,4.80
2019-02-22T06:50:56.056Z,4.79
2019-02-22T06:51:56.015Z,4.86
2019-02-22T06:52:56.013Z,4.90
2019-02-22T06:53:55.990Z,4.77
2019-02-22T06:54:55.979Z,4.83
2019-02-22T06:55:55.973Z,4.65
2019-02-22T06:56:55.979Z,4.69
2019-02-22T06:57:55.951Z,4.59
2019-02-22T06:58:55.945Z,4.56
2019-02-22T06:59:55.926Z,4.65
2019-02-22T07:00:55.927Z,4.64
2019-02-22T07:01:55.907Z,4.51
2019-02-22T07:02:55.915Z,4.53
2019-02-22T07:03:55.879Z,4.53
2019-02-22T07:04:55.871Z,4.51
2019-02-22T07:05:55.857Z,4.53
2019-02-22T07:06:55.894Z,4.54
2019-02-22T07:07:56.880Z,4.51
2019-02-22T07:08:55.844Z,4.46
2019-02-22T07:09:55.841Z,4.50
2019-02-22T07:10:55.817Z,4.46
2019-02-22T07:11:55.803Z,4.32
2019-02-22T07:12:56.886Z,4.29
2019-02-22T07:13:55.779Z,4.24
2019-02-22T07:14:55.845Z,4.34
2019-02-22T07:15:55.763Z,4.31
2019-02-22T07:16:55.754Z,4.31
2019-02-22T07:17:55.753Z,4.24
2019-02-22T07:18:55.725Z,4.20
2019-02-22T07:19:55.720Z,4.21
2019-02-22T07:20:55.717Z,4.14
2019-02-22T07:21:55.697Z,4.14
2019-02-22T07:22:55.712Z,4.20
2019-02-22T07:23:55.669Z,4.18
2019-02-22T07:24:55.664Z,4.25
2019-02-22T07:25:55.649Z,4.24
2019-02-22T07:26:55.640Z,4.31
2019-02-22T07:27:56.193Z,4.24
2019-02-22T07:28:55.630Z,4.34
2019-02-22T07:29:55.612Z,4.29
2019-02-22T07:30:55.605Z,4.25
2019-02-22T07:32:05.235Z,4.29
2019-02-22T07:32:56.612Z,4.24
2019-02-22T07:33:55.580Z,4.21
2019-02-22T07:34:55.587Z,4.24
2019-02-22T07:35:55.547Z,4.16
2019-02-22T07:36:55.537Z,4.07
2019-02-22T07:37:55.526Z,4.02
2019-02-22T07:38:55.514Z,4.04
2019-02-22T07:39:55.510Z,4.14
2019-02-22T07:40:55.519Z,4.11
2019-02-22T07:41:55.486Z,4.14
2019-02-22T07:42:55.477Z,4.17
2019-02-22T07:43:55.496Z,4.13
2019-02-22T07:44:55.452Z,4.13
2019-02-22T07:45:55.445Z,4.11
2019-02-22T07:46:55.427Z,4.17
2019-02-22T07:47:55.423Z,4.08
2019-02-22T07:48:55.410Z,4.13
2019-02-22T07:49:55.413Z,4.13
2019-02-22T07:50:58.169Z,4.17
2019-02-22T07:51:55.390Z,4.07
2019-02-22T07:52:55.371Z,4.14
2019-02-22T07:53:55.361Z,4.13
2019-02-22T07:54:55.350Z,4.17
2019-02-22T07:55:55.589Z,4.06
2019-02-22T07:56:55.322Z,3.99
2019-02-22T07:57:55.321Z,3.89
2019-02-22T07:58:55.299Z,3.90
2019-02-22T07:59:55.304Z,3.88
2019-02-22T08:00:55.288Z,3.88
2019-02-22T08:01:55.295Z,3.81
2019-02-22T08:02:55.278Z,3.82
2019-02-22T08:03:55.264Z,3.89
2019-02-22T08:04:55.240Z,3.71
2019-02-22T08:05:55.238Z,3.80
2019-02-22T08:06:55.272Z,3.75
2019-02-22T08:07:55.214Z,3.78
2019-02-22T08:08:55.211Z,3.84
2019-02-22T08:09:55.209Z,4.13
2019-02-22T08:10:55.182Z,4.53
2019-02-22T08:11:55.173Z,4.62
2019-02-22T08:12:55.181Z,4.59
2019-02-22T08:13:55.150Z,4.56
2019-02-22T08:14:55.143Z,4.32
2019-02-22T08:15:55.126Z,4.14
2019-02-22T08:16:55.119Z,4.04
2019-02-22T08:17:55.137Z,3.95
2019-02-22T08:19:01.553Z,3.86
2019-02-22T08:19:56.088Z,3.88
2019-02-22T08:20:55.087Z,3.82
2019-02-22T08:21:55.060Z,3.78
2019-02-22T08:22:55.051Z,3.89
2019-02-22T08:23:55.069Z,3.92
2019-02-22T08:24:55.049Z,3.92
2019-02-22T08:25:55.030Z,3.86
2019-02-22T08:26:55.016Z,3.90
2019-02-22T08:27:55.003Z,3.96
2019-02-22T08:28:55.019Z,3.92
2019-02-22T08:29:54.980Z,3.88
2019-02-22T08:30:54.982Z,3.88
2019-02-22T08:31:54.973Z,3.88
2019-02-22T08:32:54.951Z,3.88
2019-02-22T08:33:57.072Z,3.86
2019-02-22T08:34:54.963Z,3.84
2019-02-22T08:35:54.919Z,3.86
2019-02-22T08:36:54.903Z,3.86
2019-02-22T08:37:54.913Z,3.89
2019-02-22T08:38:54.887Z,3.75
2019-02-22T08:39:58.659Z,3.89
2019-02-22T08:40:54.861Z,3.78
2019-02-22T08:41:54.857Z,3.75
2019-02-22T08:42:54.844Z,3.93
2019-02-22T08:43:54.854Z,3.86
2019-02-22T08:44:54.891Z,3.96
2019-02-22T08:45:54.828Z,3.92
2019-02-22T08:46:54.809Z,3.93
2019-02-22T08:47:54.789Z,4.04
2019-02-22T08:48:54.793Z,3.95
2019-02-22T08:49:54.801Z,3.92
2019-02-22T08:50:54.805Z,3.84
2019-02-22T08:51:54.756Z,4.00
2019-02-22T08:52:54.745Z,3.84
2019-02-22T08:53:54.726Z,3.90
2019-02-22T08:54:54.734Z,3.89
2019-02-22T08:55:54.710Z,3.80
2019-02-22T08:56:54.737Z,4.04
2019-02-22T08:57:54.731Z,4.17
2019-02-22T08:58:54.690Z,4.18
2019-02-22T08:59:54.663Z,4.43
2019-02-22T09:00:54.684Z,4.49
2019-02-22T09:01:54.641Z,4.54
2019-02-22T09:02:54.635Z,4.62
2019-02-22T09:03:54.632Z,4.59
2019-02-22T09:04:54.615Z,5.01
2019-02-22T09:05:54.609Z,5.55
2019-02-22T09:06:54.616Z,7.85
2019-02-22T09:07:54.586Z,9.73
2019-02-22T09:08:54.571Z,11.41
2019-02-22T09:09:54.591Z,12.48
2019-02-22T09:11:00.441Z,12.91
2019-02-22T09:11:57.628Z,13.17
2019-02-22T09:12:54.525Z,13.55
2019-02-22T09:13:54.517Z,13.10
2019-02-22T09:14:54.570Z,13.27
2019-02-22T09:15:54.507Z,13.51
2019-02-22T09:16:54.490Z,12.36
2019-02-22T09:17:55.357Z,10.90
2019-02-22T09:18:54.467Z,10.39
2019-02-22T09:19:54.450Z,10.95
2019-02-22T09:20:54.459Z,12.13
2019-02-22T09:21:54.455Z,12.04
2019-02-22T09:22:54.450Z,9.81
2019-02-22T09:23:54.420Z,11.03
2019-02-22T09:24:54.403Z,12.38
2019-02-22T09:25:54.429Z,13.29
2019-02-22T09:26:54.379Z,14.26
2019-02-22T09:27:54.388Z,14.21
2019-02-22T09:28:55.587Z,14.80
2019-02-22T09:29:58.873Z,14.85
2019-02-22T09:30:54.345Z,14.59
2019-02-22T09:31:54.367Z,14.74
2019-02-22T09:32:54.311Z,14.71
2019-02-22T09:33:54.299Z,13.99
2019-02-22T09:34:54.293Z,13.62
2019-02-22T09:35:54.293Z,13.91
2019-02-22T09:36:54.303Z,14.34
2019-02-22T09:37:54.263Z,14.69
2019-02-22T09:38:54.323Z,15.31
2019-02-22T09:39:54.242Z,15.60
2019-02-22T09:40:54.245Z,15.86
2019-02-22T09:41:54.230Z,16.14
2019-02-22T09:42:54.241Z,15.88
2019-02-22T09:43:55.557Z,15.80
2019-02-22T09:44:54.187Z,15.62
2019-02-22T09:45:54.171Z,15.89
2019-02-22T09:46:54.173Z,16.04
2019-02-22T09:47:54.192Z,16.03
2019-02-22T09:48:54.190Z,16.04
2019-02-22T09:49:54.134Z,15.28
2019-02-22T09:50:54.123Z,15.00
2019-02-22T09:51:54.106Z,15.66
2019-02-22T09:52:54.110Z,15.84
2019-02-22T09:53:54.114Z,15.58
2019-02-22T09:54:54.082Z,15.48
2019-02-22T09:55:54.124Z,15.55
2019-02-22T09:56:54.083Z,15.66
2019-02-22T09:57:54.060Z,15.55
2019-02-22T09:58:54.080Z,15.62
2019-02-22T09:59:54.060Z,15.70
2019-02-22T10:00:54.014Z,15.88
2019-02-22T10:01:54.000Z,15.93
2019-02-22T10:02:53.990Z,15.93
2019-02-22T10:03:53.995Z,16.23
2019-02-22T10:04:55.516Z,15.99
2019-02-22T10:05:53.960Z,15.84
2019-02-22T10:06:53.953Z,15.81
2019-02-22T10:07:53.947Z,15.81
2019-02-22T10:08:53.938Z,15.89
2019-02-22T10:09:53.957Z,16.30
2019-02-22T10:10:53.924Z,16.29
2019-02-22T10:11:53.895Z,16.87
2019-02-22T10:12:53.902Z,17.05
2019-02-22T10:13:53.887Z,16.82
2019-02-22T10:14:53.981Z,16.18
2019-02-22T10:15:54.080Z,15.92
2019-02-22T10:16:53.843Z,15.81
2019-02-22T10:17:53.837Z,15.59
2019-02-22T10:18:53.820Z,15.76
2019-02-22T10:19:53.817Z,15.81
2019-02-22T10:20:53.827Z,16.23
2019-02-22T10:21:53.794Z,16.67
2019-02-22T10:22:53.788Z,17.03
2019-02-22T10:23:53.771Z,17.22
2019-02-22T10:24:53.755Z,17.28
2019-02-22T10:25:53.773Z,17.40
2019-02-22T10:26:53.734Z,16.99
2019-02-22T10:27:53.763Z,17.05
2019-02-22T10:28:53.723Z,17.38
2019-02-22T10:29:53.708Z,17.18
2019-02-22T10:30:53.694Z,17.02
2019-02-22T10:31:53.707Z,17.00
2019-02-22T10:32:53.703Z,16.88
2019-02-22T10:33:53.672Z,16.67
2019-02-22T10:34:53.659Z,16.10
2019-02-22T10:35:53.650Z,16.10
2019-02-22T10:36:53.660Z,16.54
2019-02-22T10:37:53.625Z,16.42
2019-02-22T10:38:53.641Z,16.52
2019-02-22T10:39:53.607Z,16.32
2019-02-22T10:40:53.599Z,15.34
2019-02-22T10:41:53.592Z,14.83
2019-02-22T10:42:53.580Z,14.85
2019-02-22T10:43:53.567Z,14.31
2019-02-22T10:44:53.614Z,14.30
2019-02-22T10:45:53.541Z,14.02
2019-02-22T10:46:53.553Z,14.60
2019-02-22T10:47:53.516Z,15.16
2019-02-22T10:48:53.506Z,14.11
2019-02-22T10:49:53.513Z,13.31
2019-02-22T10:50:53.487Z,13.22
2019-02-22T10:51:53.490Z,14.35
2019-02-22T10:53:01.667Z,15.46
2019-02-22T10:53:54.462Z,16.14
2019-02-22T10:54:53.481Z,16.63
2019-02-22T10:55:53.433Z,16.99
2019-02-22T10:56:53.428Z,17.05
2019-02-22T10:57:53.435Z,17.25
2019-02-22T10:58:53.405Z,17.40
2019-02-22T10:59:53.392Z,16.99
2019-02-22T11:00:53.420Z,16.98
2019-02-22T11:01:53.364Z,17.21
2019-02-22T11:02:53.366Z,17.43
2019-02-22T11:03:53.351Z,14.60
2019-02-22T11:04:53.350Z,13.83
2019-02-22T11:05:53.328Z,13.47
2019-02-22T11:06:53.339Z,12.87
2019-02-22T11:07:53.299Z,13.12
2019-02-22T11:08:53.296Z,13.19
2019-02-22T11:09:53.304Z,13.19
2019-02-22T11:10:53.269Z,13.29
2019-02-22T11:11:53.290Z,13.25
2019-02-22T11:12:53.262Z,12.49
2019-02-22T11:13:53.254Z,12.96
2019-02-22T11:14:53.239Z,13.21
2019-02-22T11:15:53.240Z,13.68
2019-02-22T11:16:53.207Z,13.28
2019-02-22T11:17:53.219Z,13.50
2019-02-22T11:18:53.188Z,14.60
2019-02-22T11:19:53.176Z,15.25
2019-02-22T11:20:53.164Z,15.68
2019-02-22T11:21:53.154Z,15.96
2019-02-22T11:22:53.196Z,15.80
2019-02-22T11:23:53.141Z,15.22
2019-02-22T11:24:53.132Z,15.13
2019-02-22T11:25:53.119Z,15.71
2019-02-22T11:26:53.115Z,15.98
2019-02-22T11:27:53.139Z,16.07
2019-02-22T11:28:53.176Z,15.28
2019-02-22T11:29:53.133Z,14.56
2019-02-22T11:30:53.067Z,14.71
2019-02-22T11:31:53.064Z,15.15
2019-02-22T11:32:53.072Z,15.15
2019-02-22T11:33:53.072Z,14.60
2019-02-22T11:34:53.016Z,13.68
2019-02-22T11:35:53.020Z,13.10
2019-02-22T11:36:53.002Z,12.96
2019-02-22T11:37:52.992Z,13.09
2019-02-22T11:38:52.996Z,12.99
2019-02-22T11:39:53.031Z,13.22
2019-02-22T11:40:52.957Z,12.98
2019-02-22T11:41:52.943Z,13.01
2019-02-22T11:42:52.932Z,12.69
2019-02-22T11:43:52.930Z,12.76
2019-02-22T11:44:52.918Z,12.99
2019-02-22T11:45:52.932Z,13.29
2019-02-22T11:46:52.900Z,14.26
2019-02-22T11:47:52.876Z,14.75
2019-02-22T11:48:52.873Z,14.09
2019-02-22T11:49:52.885Z,14.06
2019-02-22T11:50:52.888Z,15.07
2019-02-22T11:51:52.836Z,15.60
2019-02-22T11:52:52.826Z,15.70
2019-02-22T11:53:52.815Z,16.04
2019-02-22T11:54:52.809Z,15.77
2019-02-22T11:55:52.830Z,16.75
2019-02-22T11:56:52.853Z,17.06
2019-02-22T11:57:52.781Z,17.14
2019-02-22T11:58:52.774Z,16.98
2019-02-22T11:59:52.756Z,16.96
2019-02-22T12:00:52.773Z,16.59
2019-02-22T12:01:52.742Z,16.96
2019-02-22T12:02:52.721Z,17.28
2019-02-22T12:03:52.715Z,17.15
2019-02-22T12:04:52.705Z,17.18
2019-02-22T12:05:52.691Z,17.45
2019-02-22T12:06:52.701Z,16.96
2019-02-22T12:07:52.692Z,17.36
2019-02-22T12:08:52.698Z,17.20
2019-02-22T12:09:52.672Z,17.71
2019-02-22T12:10:52.644Z,18.11
2019-02-22T12:11:52.631Z,17.63
2019-02-22T12:12:52.645Z,17.99
2019-02-22T12:13:52.606Z,18.04
2019-02-22T12:14:52.592Z,17.76
2019-02-22T12:15:52.589Z,17.65
2019-02-22T12:16:52.578Z,17.15
2019-02-22T12:17:52.605Z,17.30
2019-02-22T12:18:52.566Z,17.47
2019-02-22T12:19:52.548Z,17.65
2019-02-22T12:20:52.534Z,17.98
2019-02-22T12:21:52.529Z,17.68
2019-02-22T12:22:52.539Z,17.14
2019-02-22T12:23:53.032Z,16.66
2019-02-22T12:24:52.566Z,15.67
2019-02-22T12:25:52.519Z,15.38
2019-02-22T12:26:52.485Z,16.07
2019-02-22T12:27:52.501Z,16.69
2019-02-22T12:28:52.457Z,16.82
2019-02-22T12:29:52.460Z,17.00
2019-02-22T12:30:52.452Z,17.45
2019-02-22T12:31:52.421Z,17.43
2019-02-22T12:32:52.422Z,17.46
2019-02-22T12:33:52.471Z,17.39
2019-02-22T12:34:52.389Z,17.87
2019-02-22T12:35:52.384Z,18.44
2019-02-22T12:36:52.392Z,18.69
2019-02-22T12:37:52.353Z,18.50
2019-02-22T12:38:52.343Z,18.16
2019-02-22T12:39:52.361Z,17.70
2019-02-22T12:40:52.331Z,17.53
2019-02-22T12:41:53.706Z,17.86
2019-02-22T12:42:52.333Z,17.79
2019-02-22T12:43:52.290Z,17.46
2019-02-22T12:45:02.561Z,17.73
2019-02-22T12:45:53.270Z,18.21
2019-02-22T12:46:52.267Z,18.29
2019-02-22T12:47:52.260Z,17.73
2019-02-22T12:48:52.251Z,17.53
2019-02-22T12:49:52.260Z,17.38
2019-02-22T12:50:52.252Z,17.46
2019-02-22T12:51:52.210Z,17.42
2019-02-22T12:52:52.205Z,17.63
2019-02-22T12:53:52.254Z,18.02
2019-02-22T12:54:52.189Z,18.29
2019-02-22T12:55:52.195Z,17.65
2019-02-22T12:56:57.628Z,16.78
2019-02-22T12:57:53.150Z,17.03
2019-02-22T12:58:52.141Z,17.68
2019-02-22T12:59:52.153Z,17.66
2019-02-22T13:00:52.138Z,17.74
2019-02-22T13:01:52.137Z,17.83
2019-02-22T13:03:01.634Z,17.60
2019-02-22T13:03:53.099Z,17.33
2019-02-22T13:04:52.103Z,17.06
2019-02-22T13:05:52.069Z,16.59
2019-02-22T13:06:52.051Z,16.73
2019-02-22T13:07:52.809Z,17.17
2019-02-22T13:08:52.050Z,17.65
2019-02-22T13:09:52.021Z,17.28